Time;durP1;ratioP1;P1;durP2;ratioP2;P2;SDS_P1;SDS_P2;PMS_P1;PMS_P2;Temp;Humidity;BMP_temperature;BMP_pressure;BME280_temperature;BME280_humidity;BME280_pressure;Samples;Min_cycle;Max_cycle;Signal;HPM_P1;HPM_P2
2022/09/17 00:01:06;;;;;;;4.83;2.50;;;;;;;11.10;77.62;99335.84;1677772;83;25740;-79
2022/09/17 00:03:34;;;;;;;4.12;2.58;;;;;;;11.05;77.75;99332.48;1691139;84;25799;-78
2022/09/17 00:06:07;;;;;;;3.60;3.02;;;;;;;11.06;77.87;99335.45;1675691;84;25945;-79
2022/09/17 00:08:36;;;;;;;4.35;3.22;;;;;;;11.02;77.98;99334.76;1696039;84;25806;-79
2022/09/17 00:11:14;;;;;;;3.33;2.72;;;;;;;10.97;78.20;99335.96;1684298;84;27442;-79
2022/09/17 00:13:42;;;;;;;4.05;3.22;;;;;;;10.96;78.37;99335.64;1678059;84;25813;-79
2022/09/17 00:16:09;;;;;;;7.03;2.90;;;;;;;10.95;78.40;99338.84;1673801;83;25798;-78
2022/09/17 00:18:39;;;;;;;3.95;2.58;;;;;;;10.94;78.44;99332.37;1697244;83;26513;-79
2022/09/17 00:21:04;;;;;;;3.45;2.35;;;;;;;10.92;78.52;99332.59;1673453;84;25950;-79
2022/09/17 00:23:30;;;;;;;2.95;2.65;;;;;;;10.91;78.58;99338.15;1672462;85;28357;-79
2022/09/17 00:25:58;;;;;;;3.65;2.22;;;;;;;10.90;78.65;99334.67;1675320;84;25924;-78
2022/09/17 00:28:24;;;;;;;4.42;2.60;;;;;;;10.91;78.74;99339.49;1690914;84;25798;-78
2022/09/17 00:30:50;;;;;;;6.15;2.70;;;;;;;10.89;78.76;99342.40;1691170;83;26229;-79
2022/09/17 00:33:19;;;;;;;5.17;2.50;;;;;;;10.84;78.87;99335.02;1661373;84;26382;-78
2022/09/17 00:35:59;;;;;;;4.17;2.62;;;;;;;10.84;78.89;99339.03;1649110;86;28280;-79
2022/09/17 00:38:26;;;;;;;5.17;2.72;;;;;;;10.83;78.94;99332.05;1674180;84;25821;-78
2022/09/17 00:40:53;;;;;;;4.17;2.52;;;;;;;10.82;79.03;99341.11;1677859;83;26263;-78
2022/09/17 00:43:43;;;;;;;5.33;3.33;;;;;;;10.83;79.05;99340.60;1688576;84;26098;-78
2022/09/17 00:46:25;;;;;;;6.45;2.65;;;;;;;10.83;79.08;99342.77;1682604;85;25473;-78
2022/09/17 00:48:57;;;;;;;5.83;2.70;;;;;;;10.82;79.05;99338.95;1694198;84;27480;-79
2022/09/17 00:51:38;;;;;;;2.95;2.50;;;;;;;10.81;79.14;99348.03;1682723;83;26233;-80
2022/09/17 00:54:08;;;;;;;5.17;2.42;;;;;;;10.79;79.18;99348.78;1688867;83;25775;-79
2022/09/17 00:56:38;;;;;;;5.17;2.40;;;;;;;10.78;79.22;99349.29;1669521;84;25819;-78
2022/09/17 00:59:06;;;;;;;4.10;2.90;;;;;;;10.81;79.26;99352.87;1686126;84;25772;-77
2022/09/17 01:01:32;;;;;;;7.12;2.42;;;;;;;10.82;79.14;99349.15;1684856;83;27459;-78
2022/09/17 01:03:59;;;;;;;7.87;2.77;;;;;;;10.83;79.16;99355.33;1688550;84;25909;-78
2022/09/17 01:06:59;;;;;;;4.70;2.52;;;;;;;10.82;79.07;99351.83;1683517;84;25970;-78
2022/09/17 01:09:39;;;;;;;3.45;2.60;;;;;;;10.83;79.00;99345.95;1693641;84;25708;-79
2022/09/17 01:12:32;;;;;;;2.87;2.55;;;;;;;10.85;78.95;99350.58;1692331;83;25936;-79
2022/09/17 01:15:38;;;;;;;4.72;2.65;;;;;;;10.82;78.99;99355.02;1701957;83;27053;-78
2022/09/17 01:18:13;;;;;;;4.42;2.35;;;;;;;10.78;78.95;99350.63;1689110;84;25778;-79
2022/09/17 01:20:54;;;;;;;2.90;2.37;;;;;;;10.74;78.94;99344.06;1696398;83;25794;-79
2022/09/17 01:23:29;;;;;;;3.92;2.40;;;;;;;10.73;78.95;99349.66;1684076;83;25773;-79
2022/09/17 01:26:18;;;;;;;4.15;2.42;;;;;;;10.71;79.02;99343.70;1696382;83;25316;-79
2022/09/17 01:29:35;;;;;;;3.22;2.37;;;;;;;10.69;78.95;99342.55;1684642;84;28324;-79
2022/09/17 01:32:10;;;;;;;3.52;2.35;;;;;;;10.67;78.98;99335.80;1688221;83;26084;-79
2022/09/17 01:35:06;;;;;;;3.60;2.70;;;;;;;10.63;79.16;99345.28;1684616;83;25983;-79
2022/09/17 01:37:44;;;;;;;3.62;2.55;;;;;;;10.59;79.20;99344.08;1682873;84;26238;-79
2022/09/17 01:40:17;;;;;;;3.22;2.37;;;;;;;10.54;79.29;99346.61;1691782;83;25784;-79
2022/09/17 01:42:54;;;;;;;6.20;2.80;;;;;;;10.51;79.39;99346.52;1698541;83;27530;-81
2022/09/17 01:45:29;;;;;;;3.37;2.55;;;;;;;10.49;79.39;99349.09;1696450;83;25831;-79
2022/09/17 01:48:22;;;;;;;8.15;2.40;;;;;;;10.46;79.50;99346.33;1684437;84;26083;-78
2022/09/17 01:51:12;;;;;;;4.17;2.25;;;;;;;10.43;79.54;99354.81;1641563;87;25747;-78
2022/09/17 01:53:46;;;;;;;4.85;2.52;;;;;;;10.43;79.55;99353.98;1653901;85;26345;-79
2022/09/17 01:56:18;;;;;;;3.52;2.30;;;;;;;10.40;79.54;99359.75;1651068;85;27483;-77
2022/09/17 01:58:52;;;;;;;3.80;2.65;;;;;;;10.38;79.56;99359.98;1655857;86;26102;-78
2022/09/17 02:01:22;;;;;;;2.83;2.22;;;;;;;10.38;79.64;99357.30;1649123;86;25730;-78
2022/09/17 02:03:57;;;;;;;4.03;2.25;;;;;;;10.37;79.58;99362.34;1698409;83;25839;-78
2022/09/17 02:06:31;;;;;;;3.67;2.30;;;;;;;10.37;79.52;99355.65;1682650;83;25743;-79
2022/09/17 02:09:09;;;;;;;4.20;3.37;;;;;;;10.37;79.61;99352.97;1666710;84;27442;-78
2022/09/17 02:11:38;;;;;;;3.40;2.50;;;;;;;10.37;79.49;99356.19;1646944;84;25777;-78
2022/09/17 02:14:15;;;;;;;5.33;2.37;;;;;;;10.35;79.45;99349.69;1658556;85;26478;-79
2022/09/17 02:16:47;;;;;;;4.78;2.20;;;;;;;10.35;79.36;99347.02;1680464;83;25774;-79
2022/09/17 02:19:24;;;;;;;4.00;2.20;;;;;;;10.33;79.33;99346.95;1689984;83;25792;-79
2022/09/17 02:22:07;;;;;;;6.70;2.15;;;;;;;10.31;79.33;99346.35;1688598;83;27477;-79
2022/09/17 02:24:51;;;;;;;3.00;2.08;;;;;;;10.32;79.40;99353.33;1684397;83;26581;-78
2022/09/17 02:27:47;;;;;;;2.33;1.77;;;;;;;10.31;79.44;99352.50;1662914;83;25884;-78
2022/09/17 02:30:14;;;;;;;2.85;1.75;;;;;;;10.27;79.37;99355.31;1689131;83;25755;-78
2022/09/17 02:32:41;;;;;;;2.00;1.75;;;;;;;10.24;79.46;99349.06;1669864;83;25909;-79
2022/09/17 02:35:10;;;;;;;5.45;2.30;;;;;;;10.23;79.39;99349.26;1685843;83;27533;-78
2022/09/17 02:37:36;;;;;;;4.03;2.15;;;;;;;10.19;79.45;99342.70;1687951;83;25668;-79
2022/09/17 02:40:04;;;;;;;3.00;2.05;;;;;;;10.18;79.46;99341.08;1695423;83;25820;-79
2022/09/17 02:42:53;;;;;;;5.33;2.17;;;;;;;10.16;79.51;99342.60;1680947;83;26241;-78
2022/09/17 02:45:35;;;;;;;5.78;1.90;;;;;;;10.16;79.54;99344.48;1655520;85;25806;-78
2022/09/17 02:48:12;;;;;;;2.42;1.65;;;;;;;10.15;79.63;99343.66;1695257;83;28278;-79
2022/09/17 02:50:50;;;;;;;4.40;1.90;;;;;;;10.12;79.75;99344.06;1683299;83;26015;-79
2022/09/17 02:53:28;;;;;;;6.85;2.30;;;;;;;10.08;79.82;99334.30;1683903;83;25338;-79
2022/09/17 02:56:29;;;;;;;4.45;2.20;;;;;;;10.05;79.81;99333.37;1689809;83;25758;-80
2022/09/17 02:59:25;;;;;;;3.92;1.98;;;;;;;10.05;79.89;99337.92;1689092;83;25982;-78
2022/09/17 03:02:11;;;;;;;5.95;2.40;;;;;;;9.99;80.01;99336.08;1690238;83;28269;-79
2022/09/17 03:04:41;;;;;;;3.35;2.27;;;;;;;9.93;80.14;99329.73;1689480;83;26016;-78
2022/09/17 03:07:10;;;;;;;4.58;2.30;;;;;;;9.90;80.32;99332.03;1688871;83;25921;-78
2022/09/17 03:09:37;;;;;;;3.33;2.02;;;;;;;9.89;80.40;99334.38;1699943;83;26448;-78
2022/09/17 03:12:05;;;;;;;6.17;2.67;;;;;;;9.85;80.53;99338.02;1678229;83;25901;-78
2022/09/17 03:14:31;;;;;;;4.33;2.47;;;;;;;9.87;80.59;99342.62;1690395;83;26987;-79
2022/09/17 03:16:57;;;;;;;4.90;2.05;;;;;;;9.88;80.55;99338.91;1681273;83;25944;-79
2022/09/17 03:19:24;;;;;;;3.58;2.08;;;;;;;9.89;80.62;99341.07;1694025;83;26385;-79
2022/09/17 03:21:50;;;;;;;2.85;2.22;;;;;;;9.91;80.62;99343.02;1694993;83;25792;-79
2022/09/17 03:24:16;;;;;;;4.80;2.50;;;;;;;9.91;80.60;99343.02;1675383;83;25336;-80
2022/09/17 03:26:43;;;;;;;6.92;2.30;;;;;;;9.90;80.58;99336.04;1686872;83;27443;-78
2022/09/17 03:29:09;;;;;;;3.72;2.27;;;;;;;9.89;80.66;99332.54;1673207;83;26539;-78
2022/09/17 03:31:35;;;;;;;3.83;2.72;;;;;;;9.86;80.74;99327.59;1635040;86;26414;-79
2022/09/17 03:34:01;;;;;;;7.50;3.05;;;;;;;9.89;80.75;99329.03;1628540;86;26573;-78
2022/09/17 03:36:28;;;;;;;3.20;2.42;;;;;;;9.89;80.75;99327.19;1700333;83;25760;-78
2022/09/17 03:38:56;;;;;;;3.77;2.42;;;;;;;9.85;80.80;99329.98;1695912;83;27547;-79
2022/09/17 03:41:23;;;;;;;6.22;2.50;;;;;;;9.85;80.88;99333.17;1688397;83;25744;-78
2022/09/17 03:43:50;;;;;;;5.17;2.67;;;;;;;9.83;80.98;99333.91;1705577;83;25720;-79
2022/09/17 03:46:17;;;;;;;5.17;2.67;;;;;;;9.84;80.99;99329.67;1704044;83;25950;-78
2022/09/17 03:48:44;;;;;;;4.37;2.70;;;;;;;9.85;81.03;99330.50;1703087;83;26528;-79
2022/09/17 03:51:13;;;;;;;4.55;2.80;;;;;;;9.82;81.05;99328.23;1689420;83;27479;-79
2022/09/17 03:53:39;;;;;;;5.75;3.45;;;;;;;9.80;81.09;99331.64;1685559;84;26264;-78
2022/09/17 03:56:06;;;;;;;3.08;2.45;;;;;;;9.75;81.22;99338.16;1696899;83;26480;-78
2022/09/17 03:58:34;;;;;;;4.40;2.90;;;;;;;9.74;81.32;99336.50;1687245;83;25799;-79
2022/09/17 04:01:02;;;;;;;4.95;2.98;;;;;;;9.72;81.37;99338.06;1691362;83;25799;-79
2022/09/17 04:03:30;;;;;;;4.70;2.67;;;;;;;9.73;81.40;99336.22;1642423;84;27523;-79
2022/09/17 04:05:56;;;;;;;7.62;3.08;;;;;;;9.73;81.34;99337.55;1691703;83;26007;-79
2022/09/17 04:08:22;;;;;;;2.80;2.45;;;;;;;9.73;81.29;99331.66;1696416;83;25702;-78
2022/09/17 04:10:51;;;;;;;2.95;2.42;;;;;;;9.72;81.32;99325.20;1688603;83;25621;-79
2022/09/17 04:13:17;;;;;;;3.75;2.65;;;;;;;9.71;81.27;99323.58;1690512;83;25994;-79
2022/09/17 04:15:46;;;;;;;4.45;2.80;;;;;;;9.65;81.26;99321.22;1695998;83;28282;-79
2022/09/17 04:18:13;;;;;;;4.60;2.92;;;;;;;9.61;81.36;99325.86;1658623;83;26492;-78
2022/09/17 04:20:40;;;;;;;5.33;3.12;;;;;;;9.55;81.47;99316.84;1693048;83;25849;-78
2022/09/17 04:23:06;;;;;;;5.00;3.50;;;;;;;9.54;81.55;99326.42;1688957;83;25978;-78
2022/09/17 04:25:33;;;;;;;4.22;3.47;;;;;;;9.53;81.65;99324.77;1696266;83;25768;-79
2022/09/17 04:27:59;;;;;;;5.62;3.60;;;;;;;9.53;81.70;99326.09;1689581;83;27448;-79
2022/09/17 04:30:25;;;;;;;5.25;3.72;;;;;;;9.53;81.70;99327.44;1692402;83;25664;-79
2022/09/17 04:32:52;;;;;;;6.37;4.03;;;;;;;9.52;81.79;99325.78;1685494;83;25848;-78
2022/09/17 04:35:18;;;;;;;7.35;3.52;;;;;;;9.49;81.90;99322.20;1691983;83;25980;-79
2022/09/17 04:37:54;;;;;;;4.53;3.80;;;;;;;9.45;81.99;99323.16;1693247;83;25745;-79
2022/09/17 04:40:21;;;;;;;8.28;4.03;;;;;;;9.42;82.19;99334.25;1682786;83;27459;-79
2022/09/17 04:42:48;;;;;;;5.58;4.10;;;;;;;9.41;82.30;99333.13;1682326;83;25959;-78
2022/09/17 04:45:14;;;;;;;4.17;3.55;;;;;;;9.39;82.47;99329.31;1634912;86;25559;-78
2022/09/17 04:47:41;;;;;;;7.22;4.15;;;;;;;9.40;82.63;99330.97;1681057;84;25822;-78
2022/09/17 04:50:09;;;;;;;5.22;3.35;;;;;;;9.39;82.68;99327.18;1668342;83;25865;-78
2022/09/17 04:52:36;;;;;;;4.20;3.80;;;;;;;9.38;82.82;99330.36;1673183;83;27495;-78
2022/09/17 04:55:03;;;;;;;6.55;3.60;;;;;;;9.36;83.00;99328.41;1678628;83;25753;-77
2022/09/17 04:57:29;;;;;;;5.28;3.60;;;;;;;9.39;83.19;99332.52;1694871;83;25705;-78
2022/09/17 04:59:56;;;;;;;5.58;3.58;;;;;;;9.42;83.34;99337.44;1686785;83;25830;-77
2022/09/17 05:02:22;;;;;;;6.40;3.55;;;;;;;9.45;83.54;99335.19;1646829;86;26147;-77
2022/09/17 05:04:49;;;;;;;4.67;4.00;;;;;;;9.48;83.71;99335.25;1673875;84;27462;-77
2022/09/17 05:07:15;;;;;;;6.20;3.75;;;;;;;9.51;83.86;99342.86;1666534;83;25975;-78
2022/09/17 05:09:42;;;;;;;7.20;4.10;;;;;;;9.53;83.96;99348.31;1643443;86;25964;-78
2022/09/17 05:12:08;;;;;;;6.50;3.72;;;;;;;9.55;84.08;99341.41;1650362;84;25644;-78
2022/09/17 05:14:34;;;;;;;5.03;3.33;;;;;;;9.57;84.18;99338.84;1680521;83;25844;-78
2022/09/17 05:17:01;;;;;;;6.22;3.80;;;;;;;9.60;84.22;99344.28;1696769;83;27459;-78
2022/09/17 05:19:27;;;;;;;5.30;3.40;;;;;;;9.65;84.29;99348.45;1694760;83;25887;-78
2022/09/17 05:21:53;;;;;;;5.35;3.90;;;;;;;9.68;84.41;99352.06;1686168;83;25825;-78
2022/09/17 05:24:20;;;;;;;5.40;3.62;;;;;;;9.72;84.52;99355.95;1693308;84;25819;-77
2022/09/17 05:26:46;;;;;;;4.17;3.52;;;;;;;9.77;84.67;99358.83;1684577;84;25921;-78
2022/09/17 05:29:14;;;;;;;5.87;3.70;;;;;;;9.81;84.75;99356.86;1683623;83;27526;-78
2022/09/17 05:31:40;;;;;;;4.95;3.15;;;;;;;9.87;84.95;99354.66;1688516;83;26052;-78
2022/09/17 05:34:08;;;;;;;6.42;3.33;;;;;;;9.93;85.05;99351.64;1666694;83;26620;-78
2022/09/17 05:36:34;;;;;;;4.08;3.50;;;;;;;9.98;85.00;99353.17;1679824;83;25861;-78
2022/09/17 05:39:00;;;;;;;8.00;3.33;;;;;;;10.03;85.13;99348.81;1682539;83;25788;-78
2022/09/17 05:41:27;;;;;;;5.65;2.98;;;;;;;10.06;85.00;99350.25;1685866;83;28278;-79
2022/09/17 05:43:53;;;;;;;6.45;3.90;;;;;;;10.07;84.97;99350.03;1690878;83;25944;-77
2022/09/17 05:46:20;;;;;;;5.33;2.98;;;;;;;10.09;85.13;99350.63;1685038;84;25966;-77
2022/09/17 05:48:46;;;;;;;3.27;2.95;;;;;;;10.14;85.28;99350.02;1688570;83;26324;-78
2022/09/17 05:51:12;;;;;;;4.47;2.90;;;;;;;10.18;85.25;99348.56;1685231;84;26389;-77
2022/09/17 05:53:39;;;;;;;4.15;3.20;;;;;;;10.22;85.31;99351.14;1690553;83;26871;-78
2022/09/17 05:56:05;;;;;;;3.42;3.02;;;;;;;10.26;85.31;99344.31;1687874;83;26475;-78
2022/09/17 05:58:33;;;;;;;5.03;3.35;;;;;;;10.32;85.34;99350.66;1692652;83;26595;-78
2022/09/17 06:01:03;;;;;;;11.10;3.55;;;;;;;10.35;85.29;99348.89;1695306;83;26469;-79
2022/09/17 06:03:29;;;;;;;5.73;3.20;;;;;;;10.41;85.26;99346.18;1696205;83;25942;-79
2022/09/17 06:05:58;;;;;;;6.65;3.52;;;;;;;10.45;85.22;99351.40;1695741;83;26957;-79
2022/09/17 06:08:27;;;;;;;5.35;3.22;;;;;;;10.47;85.23;99346.65;1696327;83;26466;-78
2022/09/17 06:10:54;;;;;;;7.67;2.83;;;;;;;10.50;85.30;99350.76;1697445;83;26475;-78
2022/09/17 06:13:20;;;;;;;5.05;3.70;;;;;;;10.53;85.46;99343.10;1695408;83;26267;-78
2022/09/17 06:15:52;;;;;;;8.10;3.83;;;;;;;10.55;85.42;99343.70;1690658;83;25757;-78
2022/09/17 06:18:19;;;;;;;5.53;3.15;;;;;;;10.56;85.60;99343.19;1691647;83;27438;-78
2022/09/17 06:21:01;;;;;;;6.47;3.65;;;;;;;10.59;85.78;99336.88;1694256;83;25730;-78
2022/09/17 06:23:34;;;;;;;4.95;3.08;;;;;;;10.63;85.91;99338.08;1696257;83;25792;-78
2022/09/17 06:26:01;;;;;;;6.28;3.08;;;;;;;10.67;86.11;99336.59;1693763;83;25847;-78
2022/09/17 06:28:28;;;;;;;6.53;2.92;;;;;;;10.72;86.23;99339.45;1696276;83;26461;-81
2022/09/17 06:31:03;;;;;;;6.42;3.25;;;;;;;10.77;86.23;99342.30;1701764;82;27472;-78
2022/09/17 06:33:31;;;;;;;4.20;2.87;;;;;;;10.82;86.26;99337.09;1690634;83;25905;-79
2022/09/17 06:36:01;;;;;;;3.60;3.20;;;;;;;10.87;86.15;99339.13;1696117;83;25785;-78
2022/09/17 06:38:31;;;;;;;6.15;3.10;;;;;;;10.88;86.14;99331.91;1702053;82;26360;-78
2022/09/17 06:40:57;;;;;;;6.15;3.10;;;;;;;10.92;86.11;99332.59;1699707;83;26456;-78
2022/09/17 06:43:24;;;;;;;5.78;3.70;;;;;;;10.98;86.23;99334.39;1696106;82;27509;-79
2022/09/17 06:46:00;;;;;;;8.88;4.67;;;;;;;11.05;86.25;99324.44;1685696;83;25803;-78
2022/09/17 06:48:29;;;;;;;7.45;4.62;;;;;;;11.12;86.22;99331.88;1689507;83;26493;-79
2022/09/17 06:51:03;;;;;;;5.97;3.20;;;;;;;11.20;86.41;99323.58;1689493;83;26541;-78
2022/09/17 06:53:30;;;;;;;6.50;3.58;;;;;;;11.25;85.91;99325.05;1676817;84;26510;-79
2022/09/17 06:55:58;;;;;;;6.70;2.95;;;;;;;11.29;85.76;99320.08;1670658;83;27447;-78
2022/09/17 06:58:25;;;;;;;6.50;2.77;;;;;;;11.32;85.83;99321.79;1683343;84;25964;-78
2022/09/17 07:00:55;;;;;;;4.90;2.87;;;;;;;11.40;85.99;99324.69;1668363;83;25903;-78
2022/09/17 07:03:22;;;;;;;4.58;2.92;;;;;;;11.44;85.74;99326.70;1685778;83;25797;-78
2022/09/17 07:05:48;;;;;;;5.08;2.85;;;;;;;11.49;85.91;99325.52;1646415;85;25944;-79
2022/09/17 07:08:14;;;;;;;7.80;3.33;;;;;;;11.56;85.83;99324.11;1654832;85;27456;-79
2022/09/17 07:10:41;;;;;;;7.90;3.02;;;;;;;11.60;85.59;99331.48;1684620;83;25803;-79
2022/09/17 07:13:07;;;;;;;7.37;2.90;;;;;;;11.62;85.40;99337.45;1691654;83;26327;-78
2022/09/17 07:15:33;;;;;;;5.42;2.50;;;;;;;11.60;85.11;99335.51;1693854;83;26396;-79
2022/09/17 07:18:10;;;;;;;5.20;2.60;;;;;;;11.56;84.91;99343.70;1689529;83;25780;-79
2022/09/17 07:20:38;;;;;;;6.20;2.85;;;;;;;11.56;84.87;99340.20;1684339;84;27466;-78
2022/09/17 07:23:04;;;;;;;4.12;2.80;;;;;;;11.55;85.01;99339.88;1695850;83;25771;-78
2022/09/17 07:25:30;;;;;;;4.10;2.42;;;;;;;11.58;85.02;99349.66;1668211;84;25786;-80
2022/09/17 07:27:57;;;;;;;7.50;3.00;;;;;;;11.60;85.20;99350.77;1696760;83;25802;-78
2022/09/17 07:30:23;;;;;;;4.90;2.83;;;;;;;11.63;85.21;99353.02;1622423;84;25970;-78
2022/09/17 07:32:49;;;;;;;6.50;3.33;;;;;;;11.64;85.10;99355.98;1690753;83;27701;-78
2022/09/17 07:35:16;;;;;;;6.30;3.58;;;;;;;11.62;85.15;99352.20;1654552;84;25855;-78
2022/09/17 07:37:42;;;;;;;7.53;3.90;;;;;;;11.64;85.15;99351.45;1647798;85;25801;-78
2022/09/17 07:40:09;;;;;;;7.15;4.33;;;;;;;11.63;85.06;99355.70;1642505;85;26395;-78
2022/09/17 07:42:35;;;;;;;10.98;6.33;;;;;;;11.67;85.24;99351.56;1645430;85;25765;-78
2022/09/17 07:45:01;;;;;;;7.62;4.20;;;;;;;11.72;85.54;99362.41;1644199;85;27450;-78
2022/09/17 07:47:28;;;;;;;10.68;3.90;;;;;;;11.77;85.56;99357.21;1696709;83;25856;-79
2022/09/17 07:49:54;;;;;;;3.60;3.05;;;;;;;11.81;85.29;99361.08;1691455;83;25768;-79
2022/09/17 07:52:20;;;;;;;8.45;3.35;;;;;;;11.84;85.21;99360.64;1701916;83;25770;-79
2022/09/17 07:54:47;;;;;;;9.93;5.08;;;;;;;11.88;85.39;99364.52;1698532;83;25938;-78
2022/09/17 07:57:13;;;;;;;6.37;3.50;;;;;;;11.94;85.39;99366.80;1689239;83;28209;-78
2022/09/17 07:59:40;;;;;;;6.97;5.25;;;;;;;12.00;85.40;99365.90;1685983;83;25807;-78
2022/09/17 08:02:12;;;;;;;4.58;3.00;;;;;;;12.06;85.19;99367.70;1691923;83;26437;-79
2022/09/17 08:04:42;;;;;;;6.53;3.02;;;;;;;12.14;85.26;99366.05;1680803;83;25852;-78
2022/09/17 08:07:12;;;;;;;4.80;3.77;;;;;;;12.21;85.30;99360.08;1690889;83;26241;-79
2022/09/17 08:09:39;;;;;;;7.65;2.75;;;;;;;12.27;85.08;99364.53;1693999;83;28290;-78
2022/09/17 08:12:06;;;;;;;3.80;2.70;;;;;;;12.30;84.77;99366.23;1691305;83;25897;-79
2022/09/17 08:14:32;;;;;;;5.78;2.40;;;;;;;12.36;84.75;99369.34;1693961;83;25884;-78
2022/09/17 08:16:58;;;;;;;2.90;2.55;;;;;;;12.37;84.28;99366.14;1690046;83;26349;-80
2022/09/17 08:19:25;;;;;;;6.17;2.58;;;;;;;12.39;84.35;99364.87;1703431;83;25857;-77
2022/09/17 08:21:52;;;;;;;4.90;2.22;;;;;;;12.40;84.11;99361.66;1695384;83;27481;-78
2022/09/17 08:24:18;;;;;;;4.10;2.50;;;;;;;12.43;84.25;99366.56;1683983;84;25898;-78
2022/09/17 08:26:44;;;;;;;3.35;2.27;;;;;;;12.48;84.32;99369.91;1707140;83;25783;-79
2022/09/17 08:29:11;;;;;;;3.80;2.17;;;;;;;12.51;84.36;99372.95;1682788;83;25842;-79
2022/09/17 08:31:37;;;;;;;3.33;2.55;;;;;;;12.56;84.36;99374.43;1683193;84;25290;-79
2022/09/17 08:34:08;;;;;;;3.25;2.35;;;;;;;12.59;84.35;99380.70;1669659;83;27423;-79
2022/09/17 08:36:35;;;;;;;3.33;2.20;;;;;;;12.63;84.27;99383.73;1688527;83;25765;-79
2022/09/17 08:39:02;;;;;;;2.10;1.65;;;;;;;12.63;83.89;99392.63;1676983;83;25782;-79
2022/09/17 08:41:43;;;;;;;2.67;1.90;;;;;;;12.61;83.72;99392.03;1694346;83;26226;-79
2022/09/17 08:44:27;;;;;;;3.80;2.00;;;;;;;12.59;83.67;99395.48;1693722;83;26099;-78
2022/09/17 08:47:05;;;;;;;9.00;2.27;;;;;;;12.59;83.56;99402.19;1698176;83;27473;-79
2022/09/17 08:49:55;;;;;;;3.67;2.05;;;;;;;12.59;83.57;99396.00;1694160;83;26445;-79
2022/09/17 08:52:58;;;;;;;5.42;1.95;;;;;;;12.60;83.64;99398.95;1677738;83;25916;-79
2022/09/17 08:55:48;;;;;;;3.27;1.98;;;;;;;12.61;83.80;99405.98;1691192;83;25827;-79
2022/09/17 08:58:56;;;;;;;3.87;2.25;;;;;;;12.63;83.83;99412.77;1682765;83;26591;-78
2022/09/17 09:01:43;;;;;;;4.80;2.87;;;;;;;12.61;83.79;99412.19;1693930;83;27468;-78
2022/09/17 09:04:38;;;;;;;3.20;2.30;;;;;;;12.63;84.04;99402.03;1693014;83;25841;-83
2022/09/17 09:07:13;;;;;;;5.28;2.35;;;;;;;12.65;84.16;99403.95;1653628;85;25653;-82
2022/09/17 09:09:47;;;;;;;4.03;2.30;;;;;;;12.68;84.05;99404.03;1687738;83;26034;-82
2022/09/17 09:12:27;;;;;;;5.00;2.83;;;;;;;12.72;84.36;99399.31;1688469;83;25827;-82
2022/09/17 09:15:05;;;;;;;4.30;2.20;;;;;;;12.77;84.27;99405.32;1678814;83;27490;-82
2022/09/17 09:17:40;;;;;;;15.45;9.03;;;;;;;12.82;84.03;99406.28;1695871;83;25921;-82
2022/09/17 09:20:23;;;;;;;7.78;5.90;;;;;;;12.87;83.76;99405.59;1697074;83;25822;-82
2022/09/17 09:22:51;;;;;;;8.50;4.97;;;;;;;12.94;84.20;99399.58;1687499;83;25824;-80
2022/09/17 09:25:28;;;;;;;3.37;2.33;;;;;;;12.99;83.87;99406.44;1687044;83;26446;-81
2022/09/17 09:28:15;;;;;;;5.55;2.30;;;;;;;13.00;83.79;99403.50;1687384;83;27702;-79
2022/09/17 09:30:59;;;;;;;5.40;2.98;;;;;;;13.05;83.89;99392.92;1690834;83;26401;-78
2022/09/17 09:33:38;;;;;;;2.98;2.25;;;;;;;13.14;83.98;99390.19;1684549;83;25836;-78
2022/09/17 09:36:13;;;;;;;3.27;2.12;;;;;;;13.26;83.95;99386.14;1695628;83;25792;-79
2022/09/17 09:38:57;;;;;;;4.03;2.00;;;;;;;13.35;83.44;99386.62;1695175;83;25745;-79
2022/09/17 09:41:39;;;;;;;4.05;2.10;;;;;;;13.40;83.21;99384.88;1690693;83;28284;-79
2022/09/17 09:44:12;;;;;;;3.90;2.42;;;;;;;13.44;82.99;99396.80;1688875;83;26060;-79
2022/09/17 09:47:11;;;;;;;3.72;1.80;;;;;;;13.47;82.80;99392.83;1678856;83;25912;-79
2022/09/17 09:50:04;;;;;;;1.70;1.60;;;;;;;13.53;82.89;99387.34;1677206;83;26257;-78
2022/09/17 09:52:51;;;;;;;3.17;1.80;;;;;;;13.61;82.68;99391.52;1684561;83;25749;-79
2022/09/17 09:55:23;;;;;;;7.37;3.85;;;;;;;13.59;81.41;99390.94;1679621;84;26926;-78
2022/09/17 09:57:58;;;;;;;3.20;1.87;;;;;;;13.50;81.02;99390.48;1655416;85;26394;-78
2022/09/17 10:00:33;;;;;;;12.78;6.65;;;;;;;13.46;80.80;99389.31;1637793;85;25830;-78
2022/09/17 10:03:23;;;;;;;4.60;2.65;;;;;;;13.47;81.24;99400.35;1658294;85;25809;-78
2022/09/17 10:06:03;;;;;;;3.22;1.40;;;;;;;13.53;81.55;99389.20;1633023;83;25922;-78
2022/09/17 10:08:34;;;;;;;5.95;3.35;;;;;;;13.60;81.81;99390.70;1668769;85;29823;-79
2022/09/17 10:11:05;;;;;;;3.75;1.62;;;;;;;13.72;82.05;99390.70;1625891;86;25779;-78
2022/09/17 10:13:35;;;;;;;1.65;1.10;;;;;;;13.81;81.78;99390.64;1641887;86;26077;-78
2022/09/17 10:16:28;;;;;;;2.60;1.35;;;;;;;13.85;81.27;99396.66;1635601;86;25827;-77
2022/09/17 10:19:11;;;;;;;1.45;1.35;;;;;;;13.92;81.26;99393.84;1634820;86;25852;-77
2022/09/17 10:21:41;;;;;;;2.72;1.85;;;;;;;13.98;81.00;99402.30;1628292;87;28165;-78
2022/09/17 10:24:29;;;;;;;2.95;1.70;;;;;;;14.01;80.31;99400.47;1646153;85;25625;-78
2022/09/17 10:27:06;;;;;;;2.10;1.50;;;;;;;14.06;80.20;99405.14;1634214;86;26153;-77
2022/09/17 10:29:33;;;;;;;2.25;1.40;;;;;;;14.16;80.09;99408.03;1682619;83;25782;-78
2022/09/17 10:32:01;;;;;;;4.53;1.82;;;;;;;14.26;79.94;99418.52;1678281;84;25790;-78
2022/09/17 10:34:30;;;;;;;2.42;2.00;;;;;;;14.31;79.29;99414.59;1681599;84;27537;-78
2022/09/17 10:36:58;;;;;;;2.25;1.50;;;;;;;14.35;79.47;99414.94;1673602;84;25841;-77
2022/09/17 10:39:47;;;;;;;2.60;1.75;;;;;;;14.37;78.55;99424.40;1681861;83;25920;-78
2022/09/17 10:42:17;;;;;;;2.42;1.82;;;;;;;14.34;78.28;99425.41;1616096;86;26009;-78
2022/09/17 10:44:56;;;;;;;1.95;1.70;;;;;;;14.26;77.77;99423.90;1691878;83;26427;-78
2022/09/17 10:47:30;;;;;;;3.08;1.40;;;;;;;14.25;78.05;99423.59;1692696;83;27942;-77
2022/09/17 10:50:04;;;;;;;1.42;1.32;;;;;;;14.21;77.95;99429.17;1692817;83;25867;-78
2022/09/17 10:52:38;;;;;;;3.55;1.50;;;;;;;14.18;78.17;99430.19;1695639;83;26116;-78
2022/09/17 10:55:37;;;;;;;3.40;1.67;;;;;;;14.22;78.46;99421.92;1695823;83;25764;-78
2022/09/17 10:58:27;;;;;;;1.40;1.30;;;;;;;14.27;78.48;99420.66;1646017;85;25846;-78
2022/09/17 11:01:21;;;;;;;1.67;1.50;;;;;;;14.34;78.44;99415.47;1662478;83;27473;-78
2022/09/17 11:04:19;;;;;;;1.90;1.40;;;;;;;14.42;78.22;99420.98;1694211;83;25965;-78
2022/09/17 11:07:00;;;;;;;1.95;1.42;;;;;;;14.46;78.37;99432.39;1650358;86;25779;-78
2022/09/17 11:09:56;;;;;;;4.70;1.80;;;;;;;14.53;78.94;99446.55;1679504;84;25767;-78
2022/09/17 11:12:46;;;;;;;4.30;2.08;;;;;;;14.61;78.63;99454.77;1687253;83;25839;-77
2022/09/17 11:15:18;;;;;;;3.15;2.02;;;;;;;14.63;78.23;99456.70;1694208;83;26942;-77
2022/09/17 11:18:19;;;;;;;3.52;2.52;;;;;;;14.67;78.63;99450.59;1694995;83;25845;-77
2022/09/17 11:21:07;;;;;;;3.10;2.17;;;;;;;14.75;78.71;99448.58;1655996;83;25760;-78
2022/09/17 11:24:14;;;;;;;2.45;2.25;;;;;;;14.80;78.05;99435.20;1692491;83;25838;-78
2022/09/17 11:27:15;;;;;;;2.20;1.90;;;;;;;14.83;77.63;99436.87;1662973;83;25805;-78
2022/09/17 11:30:11;;;;;;;3.35;2.08;;;;;;;14.87;77.12;99442.06;1694616;83;28053;-77
2022/09/17 11:33:10;;;;;;;4.30;2.00;;;;;;;14.91;76.81;99443.20;1693147;83;25656;-77
2022/09/17 11:35:50;;;;;;;2.20;1.95;;;;;;;15.03;76.96;99423.75;1693807;83;26397;-77
2022/09/17 11:38:46;;;;;;;2.02;1.62;;;;;;;15.14;76.59;99424.19;1694620;83;26620;-80
2022/09/17 11:41:22;;;;;;;3.70;1.90;;;;;;;15.24;75.82;99416.28;1695036;83;26453;-77
2022/09/17 11:44:15;;;;;;;2.47;2.27;;;;;;;15.27;75.66;99416.30;1678992;83;28319;-77
2022/09/17 11:47:08;;;;;;;3.35;2.15;;;;;;;15.31;75.50;99408.02;1678156;83;25769;-77
2022/09/17 11:49:43;;;;;;;3.60;2.92;;;;;;;15.35;75.03;99414.00;1692293;83;25289;-77
2022/09/17 11:52:23;;;;;;;2.35;1.95;;;;;;;15.38;74.30;99415.40;1614277;86;26596;-78
2022/09/17 11:55:24;;;;;;;1.37;1.27;;;;;;;15.35;73.32;99411.30;1669232;83;25700;-78
2022/09/17 11:58:05;;;;;;;2.55;1.40;;;;;;;15.36;73.55;99406.73;1653395;85;27483;-78
2022/09/17 12:00:37;;;;;;;1.10;1.07;;;;;;;15.40;73.64;99409.22;1649141;85;25302;-78
2022/09/17 12:03:15;;;;;;;1.45;1.35;;;;;;;15.40;73.25;99410.05;1682334;83;25330;-78
2022/09/17 12:05:55;;;;;;;2.58;1.75;;;;;;;15.44;73.86;99411.22;1689953;83;25838;-77